createdAt,value
2018-07-25T00:00:25.456Z,58.01
2018-07-25T00:01:25.479Z,57.65
2018-07-25T00:02:25.602Z,57.65
2018-07-25T00:03:25.366Z,57.65
2018-07-25T00:04:25.347Z,57.65
2018-07-25T00:05:25.305Z,57.17
2018-07-25T00:06:25.276Z,57.27
2018-07-25T00:07:25.261Z,57.56
2018-07-25T00:08:25.237Z,56.59
2018-07-25T00:09:25.233Z,57.37
2018-07-25T00:10:25.165Z,57.56
2018-07-25T00:11:25.125Z,58.04
2018-07-25T00:12:25.090Z,58.14
2018-07-25T00:13:25.153Z,57.62
2018-07-25T00:14:25.077Z,57.85
2018-07-25T00:15:25.031Z,58.30
2018-07-25T00:16:24.960Z,57.92
2018-07-25T00:17:25.136Z,58.30
2018-07-25T00:18:24.906Z,58.40
2018-07-25T00:19:24.873Z,58.20
2018-07-25T00:20:24.845Z,58.20
2018-07-25T00:21:24.843Z,58.59
2018-07-25T00:22:24.771Z,58.69
2018-07-25T00:23:24.951Z,58.88
2018-07-25T00:24:24.709Z,58.95
2018-07-25T00:25:24.695Z,58.69
2018-07-25T00:26:24.654Z,58.78
2018-07-25T00:27:24.618Z,58.88
2018-07-25T00:28:24.582Z,58.88
2018-07-25T00:29:24.555Z,59.55
2018-07-25T00:30:24.524Z,59.45
2018-07-25T00:31:24.496Z,58.85
2018-07-25T00:32:24.445Z,59.14
2018-07-25T00:33:24.435Z,58.95
2018-07-25T00:34:24.399Z,58.95
2018-07-25T00:35:24.376Z,59.04
2018-07-25T00:36:24.370Z,59.04
2018-07-25T00:37:24.295Z,59.23
2018-07-25T00:38:24.272Z,59.04
2018-07-25T00:40:24.202Z,58.47
2018-07-25T00:41:24.176Z,58.47
2018-07-25T00:42:24.145Z,58.17
2018-07-25T00:43:24.110Z,58.47
2018-07-25T00:44:24.091Z,58.27
2018-07-25T00:45:24.050Z,58.47
2018-07-25T00:46:24.015Z,58.56
2018-07-25T00:47:24.061Z,58.27
2018-07-25T00:48:23.961Z,57.89
2018-07-25T00:49:23.927Z,58.17
2018-07-25T00:51:23.860Z,58.47
2018-07-25T00:52:23.826Z,58.65
2018-07-25T00:53:23.798Z,59.04
2018-07-25T00:54:23.773Z,59.04
2018-07-25T00:55:23.776Z,58.95
2018-07-25T00:56:23.713Z,59.33
2018-07-25T00:57:23.673Z,59.23
2018-07-25T00:58:23.650Z,59.52
2018-07-25T00:59:23.618Z,59.81
2018-07-25T01:00:23.736Z,59.91
2018-07-25T01:01:23.543Z,59.81
2018-07-25T01:02:23.502Z,60.07
2018-07-25T01:03:23.481Z,60.55
2018-07-25T01:04:23.470Z,60.27
2018-07-25T01:05:23.467Z,60.27
2018-07-25T01:06:23.392Z,60.84
2018-07-25T01:07:23.354Z,60.94
2018-07-25T01:08:23.345Z,61.32
2018-07-25T01:09:23.296Z,61.04
2018-07-25T01:10:23.258Z,61.13
2018-07-25T01:11:23.439Z,61.32
2018-07-25T01:12:23.195Z,61.22
2018-07-25T01:13:23.178Z,61.52
2018-07-25T01:14:23.137Z,61.42
2018-07-25T01:15:23.182Z,61.32
2018-07-25T01:17:23.031Z,60.94
2018-07-25T01:18:23.041Z,61.42
2018-07-25T01:19:22.975Z,60.94
2018-07-25T01:20:23.031Z,60.94
2018-07-25T01:21:22.919Z,61.52
2018-07-25T01:22:22.879Z,61.49
2018-07-25T01:23:22.851Z,61.39
2018-07-25T01:24:22.816Z,61.87
2018-07-25T01:25:22.806Z,61.77
2018-07-25T01:26:22.751Z,61.77
2018-07-25T01:27:22.738Z,62.35
2018-07-25T01:28:22.708Z,62.06
2018-07-25T01:29:22.652Z,61.87
2018-07-25T01:30:22.626Z,61.97
2018-07-25T01:31:22.774Z,62.06
2018-07-25T01:32:22.573Z,62.26
2018-07-25T01:33:22.522Z,62.93
2018-07-25T01:34:22.518Z,62.93
2018-07-25T01:35:22.463Z,62.93
2018-07-25T01:36:22.443Z,62.93
2018-07-25T01:38:22.380Z,62.93
2018-07-25T01:39:22.337Z,62.83
2018-07-25T01:40:22.308Z,62.83
2018-07-25T01:41:22.280Z,62.45
2018-07-25T01:42:22.243Z,62.64
2018-07-25T01:43:22.206Z,62.83
2018-07-25T01:44:22.178Z,63.02
2018-07-25T01:45:22.142Z,63.02
2018-07-25T01:46:22.111Z,63.48
2018-07-25T01:47:22.082Z,63.22
2018-07-25T01:48:22.045Z,63.09
2018-07-25T01:49:22.016Z,63.67
2018-07-25T01:50:22.026Z,63.38
2018-07-25T01:51:21.951Z,63.28
2018-07-25T01:53:21.896Z,63.48
2018-07-25T01:54:21.857Z,63.76
2018-07-25T01:55:21.877Z,63.86
2018-07-25T01:57:21.790Z,63.67
2018-07-25T01:58:21.754Z,63.86
2018-07-25T01:59:21.719Z,63.86
2018-07-25T02:00:21.684Z,63.67
2018-07-25T02:01:21.648Z,63.67
2018-07-25T02:02:21.622Z,64.43
2018-07-25T02:03:21.565Z,63.95
2018-07-25T02:04:21.535Z,63.67
2018-07-25T02:05:21.504Z,63.86
2018-07-25T02:06:21.459Z,64.15
2018-07-25T02:07:21.632Z,64.05
2018-07-25T02:08:21.435Z,64.25
2018-07-25T02:09:21.395Z,64.25
2018-07-25T02:10:21.369Z,64.25
2018-07-25T02:11:21.433Z,64.34
2018-07-25T02:12:21.280Z,64.25
2018-07-25T02:13:21.266Z,64.73
2018-07-25T02:14:21.219Z,64.25
2018-07-25T02:15:21.177Z,64.63
2018-07-25T02:16:21.139Z,64.43
2018-07-25T02:17:21.111Z,64.25
2018-07-25T02:18:21.105Z,64.92
2018-07-25T02:19:21.095Z,64.92
2018-07-25T02:20:21.016Z,64.63
2018-07-25T02:21:21.002Z,64.63
2018-07-25T02:22:20.957Z,64.73
2018-07-25T02:23:20.930Z,64.73
2018-07-25T02:24:20.902Z,64.63
2018-07-25T02:25:20.853Z,64.73
2018-07-25T02:26:20.825Z,65.08
2018-07-25T02:27:20.791Z,65.27
2018-07-25T02:28:20.772Z,64.79
2018-07-25T02:29:20.739Z,64.89
2018-07-25T02:30:20.725Z,64.79
2018-07-25T02:31:20.674Z,64.92
2018-07-25T02:32:20.644Z,64.82
2018-07-25T02:33:20.602Z,64.92
2018-07-25T02:34:20.572Z,64.69
2018-07-25T02:35:20.545Z,64.73
2018-07-25T02:36:20.516Z,64.63
2018-07-25T02:37:20.469Z,64.89
2018-07-25T02:38:20.441Z,64.98
2018-07-25T02:39:20.415Z,65.01
2018-07-25T02:40:20.379Z,65.50
2018-07-25T02:41:20.344Z,65.59
2018-07-25T02:42:20.328Z,65.30
2018-07-25T02:43:20.273Z,65.69
2018-07-25T02:44:20.239Z,65.97
2018-07-25T02:45:20.208Z,65.94
2018-07-25T02:47:20.154Z,66.36
2018-07-25T02:48:20.119Z,66.61
2018-07-25T02:49:20.082Z,66.71
2018-07-25T02:50:20.054Z,66.65
2018-07-25T02:51:20.027Z,67.00
2018-07-25T02:52:19.988Z,66.81
2018-07-25T02:53:19.969Z,67.03
2018-07-25T02:54:19.923Z,67.80
2018-07-25T02:55:19.902Z,67.48
2018-07-25T02:56:19.873Z,67.68
2018-07-25T02:57:19.831Z,67.58
2018-07-25T02:58:19.810Z,67.51
2018-07-25T02:59:19.767Z,67.71
2018-07-25T03:00:19.754Z,67.32
2018-07-25T03:01:19.708Z,67.32
2018-07-25T03:02:19.659Z,67.61
2018-07-25T03:03:19.638Z,67.13
2018-07-25T03:04:19.597Z,67.13
2018-07-25T03:05:19.572Z,67.03
2018-07-25T03:06:19.555Z,66.84
2018-07-25T03:07:19.499Z,66.46
2018-07-25T03:08:19.461Z,66.55
2018-07-25T03:09:19.451Z,66.65
2018-07-25T03:10:19.412Z,66.84
2018-07-25T03:11:19.376Z,67.13
2018-07-25T03:12:19.519Z,67.03
2018-07-25T03:13:19.306Z,66.55
2018-07-25T03:14:19.273Z,67.03
2018-07-25T03:15:19.244Z,66.55
2018-07-25T03:16:19.209Z,66.55
2018-07-25T03:17:19.202Z,66.94
2018-07-25T03:18:19.153Z,66.65
2018-07-25T03:19:19.112Z,67.03
2018-07-25T03:20:19.076Z,66.74
2018-07-25T03:21:19.057Z,66.84
2018-07-25T03:22:19.039Z,67.00
2018-07-25T03:23:18.979Z,66.81
2018-07-25T03:24:18.960Z,66.91
2018-07-25T03:25:18.922Z,67.00
2018-07-25T03:26:18.884Z,67.19
2018-07-25T03:27:18.858Z,67.19
2018-07-25T03:28:18.813Z,67.77
2018-07-25T03:29:18.798Z,67.68
2018-07-25T03:30:18.768Z,67.29
2018-07-25T03:31:18.735Z,68.25
2018-07-25T03:32:18.687Z,68.31
2018-07-25T03:33:18.652Z,68.06
2018-07-25T03:34:18.632Z,68.54
2018-07-25T03:35:18.619Z,68.79
2018-07-25T03:36:18.560Z,68.89
2018-07-25T03:37:18.554Z,68.83
2018-07-25T03:38:18.500Z,68.54
2018-07-25T03:39:18.464Z,68.63
2018-07-25T03:40:18.421Z,68.73
2018-07-25T03:41:18.403Z,68.73
2018-07-25T03:42:18.387Z,68.92
2018-07-25T03:43:18.337Z,68.73
2018-07-25T03:44:18.294Z,68.63
2018-07-25T03:45:18.269Z,68.54
2018-07-25T03:46:18.267Z,68.73
2018-07-25T03:47:18.218Z,68.54
2018-07-25T03:48:18.172Z,68.83
2018-07-25T03:49:18.152Z,68.54
2018-07-25T03:50:18.111Z,68.83
2018-07-25T03:51:18.066Z,68.25
2018-07-25T03:52:18.047Z,68.35
2018-07-25T03:53:18.000Z,68.73
2018-07-25T03:54:17.975Z,68.44
2018-07-25T03:55:17.940Z,68.25
2018-07-25T03:56:17.906Z,68.44
2018-07-25T03:57:17.892Z,68.63
2018-07-25T03:58:17.843Z,68.83
2018-07-25T03:59:17.810Z,69.02
2018-07-25T04:00:17.789Z,68.92
2018-07-25T04:01:17.746Z,68.73
2018-07-25T04:02:17.724Z,69.69
2018-07-25T04:03:17.692Z,69.60
2018-07-25T04:04:17.644Z,69.21
2018-07-25T04:05:17.634Z,69.69
2018-07-25T04:06:17.590Z,69.50
2018-07-25T04:07:17.559Z,69.40
2018-07-25T04:08:17.557Z,69.50
2018-07-25T04:09:17.653Z,69.60
2018-07-25T04:10:17.457Z,69.60
2018-07-25T04:11:17.434Z,69.60
2018-07-25T04:12:17.393Z,69.12
2018-07-25T04:13:17.370Z,69.69
2018-07-25T04:14:17.336Z,69.02
2018-07-25T04:15:17.291Z,69.02
2018-07-25T04:16:17.271Z,69.21
2018-07-25T04:17:17.222Z,69.21
2018-07-25T04:18:17.205Z,69.69
2018-07-25T04:19:17.168Z,68.92
2018-07-25T04:20:17.286Z,68.83
2018-07-25T04:21:17.104Z,68.83
2018-07-25T04:22:17.119Z,68.92
2018-07-25T04:23:17.079Z,69.69
2018-07-25T04:24:17.024Z,69.40
2018-07-25T04:25:16.962Z,69.40
2018-07-25T04:26:16.949Z,69.21
2018-07-25T04:27:16.912Z,69.37
2018-07-25T04:28:16.875Z,69.75
2018-07-25T04:29:16.849Z,69.56
2018-07-25T04:30:16.803Z,69.56
2018-07-25T04:31:16.777Z,69.56
2018-07-25T04:32:16.741Z,69.56
2018-07-25T04:33:16.705Z,68.89
2018-07-25T04:34:16.684Z,68.89
2018-07-25T04:35:16.647Z,68.89
2018-07-25T04:36:16.606Z,68.98
2018-07-25T04:37:16.754Z,68.51
2018-07-25T04:38:16.543Z,68.70
2018-07-25T04:39:16.511Z,69.08
2018-07-25T04:40:16.485Z,68.70
2018-07-25T04:41:16.452Z,68.79
2018-07-25T04:42:16.416Z,68.79
2018-07-25T04:43:16.388Z,68.31
2018-07-25T04:44:16.348Z,68.60
2018-07-25T04:45:16.319Z,68.21
2018-07-25T04:46:16.369Z,68.41
2018-07-25T04:47:16.256Z,68.12
2018-07-25T04:48:16.223Z,68.02
2018-07-25T04:49:16.194Z,68.31
2018-07-25T04:50:16.159Z,68.31
2018-07-25T04:51:16.129Z,68.41
2018-07-25T04:52:16.093Z,68.60
2018-07-25T04:53:16.410Z,68.41
2018-07-25T04:54:16.029Z,68.41
2018-07-25T04:55:15.994Z,68.60
2018-07-25T04:56:16.030Z,69.18
2018-07-25T04:57:15.936Z,68.89
2018-07-25T04:58:15.893Z,68.89
2018-07-25T04:59:15.863Z,69.08
2018-07-25T05:00:15.830Z,68.70
2018-07-25T05:01:15.800Z,69.08
2018-07-25T05:02:15.774Z,68.51
2018-07-25T05:03:15.754Z,68.79
2018-07-25T05:04:15.700Z,69.08
2018-07-25T05:05:15.667Z,68.79
2018-07-25T05:06:15.642Z,68.51
2018-07-25T05:07:15.640Z,68.70
2018-07-25T05:08:15.567Z,68.51
2018-07-25T05:09:15.546Z,68.70
2018-07-25T05:10:15.504Z,68.31
2018-07-25T05:11:15.468Z,68.41
2018-07-25T05:12:15.429Z,68.60
2018-07-25T05:13:15.407Z,68.41
2018-07-25T05:14:15.366Z,68.51
2018-07-25T05:15:15.336Z,68.12
2018-07-25T05:16:15.313Z,68.31
2018-07-25T05:17:15.288Z,68.79
2018-07-25T05:18:15.262Z,68.85
2018-07-25T05:19:15.203Z,68.98
2018-07-25T05:20:15.203Z,68.95
2018-07-25T05:21:15.138Z,69.24
2018-07-25T05:22:15.104Z,69.34
2018-07-25T05:23:15.140Z,69.62
2018-07-25T05:24:15.044Z,69.62
2018-07-25T05:25:15.011Z,70.20
2018-07-25T05:26:14.976Z,70.20
2018-07-25T05:27:14.954Z,69.62
2018-07-25T05:28:14.905Z,69.34
2018-07-25T05:29:14.889Z,69.34
2018-07-25T05:30:14.918Z,69.81
2018-07-25T05:31:14.816Z,69.62
2018-07-25T05:32:14.779Z,69.14
2018-07-25T05:33:14.770Z,69.14
2018-07-25T05:34:14.712Z,69.18
2018-07-25T05:35:14.723Z,69.62
2018-07-25T05:36:14.702Z,69.37
2018-07-25T05:37:14.620Z,69.18
2018-07-25T05:38:14.590Z,69.66
2018-07-25T05:39:14.555Z,69.08
2018-07-25T05:40:14.534Z,69.18
2018-07-25T05:41:14.484Z,69.27
2018-07-25T05:42:14.467Z,69.14
2018-07-25T05:43:14.414Z,69.62
2018-07-25T05:44:14.391Z,69.85
2018-07-25T05:45:14.365Z,69.85
2018-07-25T05:46:14.327Z,69.95
2018-07-25T05:47:14.300Z,69.66
2018-07-25T05:48:14.260Z,69.56
2018-07-25T05:49:14.224Z,69.37
2018-07-25T05:50:14.186Z,69.37
2018-07-25T05:51:14.164Z,69.66
2018-07-25T05:52:14.127Z,69.81
2018-07-25T05:53:14.099Z,69.91
2018-07-25T05:54:14.057Z,68.95
2018-07-25T05:55:14.023Z,69.66
2018-07-25T05:56:13.989Z,69.75
2018-07-25T05:57:13.973Z,69.24
2018-07-25T05:58:13.933Z,69.95
2018-07-25T05:59:13.897Z,69.37
2018-07-25T06:00:13.889Z,69.62
2018-07-25T06:01:13.832Z,69.66
2018-07-25T06:02:13.798Z,69.66
2018-07-25T06:03:13.781Z,69.66
2018-07-25T06:04:13.739Z,69.75
2018-07-25T06:05:13.693Z,68.89
2018-07-25T06:06:13.755Z,69.85
2018-07-25T06:07:13.633Z,69.56
2018-07-25T06:08:13.598Z,69.18
2018-07-25T06:09:13.570Z,69.18
2018-07-25T06:10:13.537Z,69.56
2018-07-25T06:11:13.510Z,69.08
2018-07-25T06:12:13.469Z,68.51
2018-07-25T06:13:13.452Z,67.99
2018-07-25T06:14:13.439Z,67.32
2018-07-25T06:15:13.366Z,68.47
2018-07-25T06:16:13.329Z,68.08
2018-07-25T06:17:13.304Z,68.28
2018-07-25T06:18:13.262Z,68.18
2018-07-25T06:19:13.246Z,68.37
2018-07-25T06:20:13.200Z,68.37
2018-07-25T06:21:13.177Z,68.95
2018-07-25T06:22:13.152Z,69.43
2018-07-25T06:23:13.308Z,69.34
2018-07-25T06:24:13.085Z,69.20
2018-07-25T06:25:13.047Z,69.91
2018-07-25T06:26:13.002Z,70.01
2018-07-25T06:27:12.993Z,69.81
2018-07-25T06:28:12.952Z,70.17
2018-07-25T06:29:12.912Z,70.29
2018-07-25T06:30:12.868Z,70.01
2018-07-25T06:31:12.912Z,70.29
2018-07-25T06:32:12.803Z,69.97
2018-07-25T06:33:12.777Z,70.01
2018-07-25T06:34:12.742Z,69.87
2018-07-25T06:35:12.710Z,70.17
2018-07-25T06:36:12.676Z,69.68
2018-07-25T06:37:12.639Z,69.97
2018-07-25T06:38:12.601Z,70.26
2018-07-25T06:39:12.578Z,70.36
2018-07-25T06:40:12.537Z,70.20
2018-07-25T06:41:12.511Z,70.45
2018-07-25T06:42:12.475Z,70.36
2018-07-25T06:43:12.465Z,70.74
2018-07-25T06:44:12.435Z,70.49
2018-07-25T06:45:12.379Z,70.58
2018-07-25T06:46:12.335Z,70.01
2018-07-25T06:47:12.306Z,70.01
2018-07-25T06:48:12.281Z,69.87
2018-07-25T06:49:12.241Z,69.87
2018-07-25T06:50:12.406Z,69.78
2018-07-25T06:51:12.187Z,70.17
2018-07-25T06:52:12.149Z,69.87
2018-07-25T06:53:12.111Z,69.87
2018-07-25T06:54:12.078Z,69.81
2018-07-25T06:55:12.045Z,69.30
2018-07-25T06:56:12.361Z,69.87
2018-07-25T06:57:12.023Z,70.17
2018-07-25T06:58:11.954Z,69.78
2018-07-25T06:59:11.904Z,69.87
2018-07-25T07:00:11.884Z,69.97
2018-07-25T07:01:11.849Z,70.07
2018-07-25T07:02:11.815Z,69.68
2018-07-25T07:03:11.782Z,69.68
2018-07-25T07:04:11.743Z,69.97
2018-07-25T07:05:11.713Z,69.59
2018-07-25T07:06:11.672Z,70.17
2018-07-25T07:07:11.649Z,69.97
2018-07-25T07:08:11.610Z,71.31
2018-07-25T07:09:11.582Z,70.84
2018-07-25T07:10:11.549Z,70.93
2018-07-25T07:11:11.512Z,71.03
2018-07-25T07:12:11.510Z,71.03
2018-07-25T07:13:11.440Z,71.61
2018-07-25T07:14:11.416Z,71.98
2018-07-25T07:15:11.397Z,71.98
2018-07-25T07:16:11.345Z,71.89
2018-07-25T07:17:11.321Z,71.41
2018-07-25T07:18:11.273Z,71.80
2018-07-25T07:19:11.256Z,71.70
2018-07-25T07:20:11.214Z,72.18
2018-07-25T07:21:11.180Z,72.37
2018-07-25T07:22:11.144Z,72.08
2018-07-25T07:23:11.115Z,72.18
2018-07-25T07:24:11.153Z,71.89
2018-07-25T07:25:11.046Z,71.31
2018-07-25T07:26:11.008Z,71.80
2018-07-25T07:27:10.974Z,70.93
2018-07-25T07:28:10.941Z,70.93
2018-07-25T07:29:10.911Z,71.19
2018-07-25T07:30:10.891Z,71.09
2018-07-25T07:31:10.847Z,71.61
2018-07-25T07:32:10.818Z,71.80
2018-07-25T07:33:10.784Z,71.98
2018-07-25T07:34:10.749Z,71.61
2018-07-25T07:35:10.748Z,71.19
2018-07-25T07:36:10.720Z,71.03
2018-07-25T07:37:10.706Z,70.51
2018-07-25T07:38:10.609Z,70.32
2018-07-25T07:39:10.577Z,70.70
2018-07-25T07:40:10.547Z,71.66
2018-07-25T07:41:10.514Z,71.47
2018-07-25T07:42:10.476Z,71.19
2018-07-25T07:43:10.448Z,72.14
2018-07-25T07:44:10.420Z,71.66
2018-07-25T07:45:10.385Z,71.95
2018-07-25T07:46:10.347Z,72.05
2018-07-25T07:47:10.316Z,72.14
2018-07-25T07:48:10.287Z,71.19
2018-07-25T07:49:10.251Z,71.28
2018-07-25T07:50:10.214Z,71.37
2018-07-25T07:51:10.175Z,71.76
2018-07-25T07:52:10.154Z,72.14
2018-07-25T07:53:10.104Z,71.86
2018-07-25T07:54:10.080Z,72.33
2018-07-25T07:55:10.046Z,72.43
2018-07-25T07:56:10.015Z,72.05
2018-07-25T07:57:09.979Z,72.05
2018-07-25T07:58:09.957Z,72.05
2018-07-25T07:59:09.908Z,72.14
2018-07-25T08:00:09.880Z,72.43
2018-07-25T08:01:09.837Z,72.72
2018-07-25T08:02:09.814Z,73.30
2018-07-25T08:03:09.887Z,73.00
2018-07-25T08:04:09.745Z,73.58
2018-07-25T08:05:09.705Z,73.30
2018-07-25T08:06:09.677Z,73.39
2018-07-25T08:07:09.642Z,73.20
2018-07-25T08:08:09.602Z,72.81
2018-07-25T08:09:09.578Z,73.10
2018-07-25T08:10:09.548Z,73.00
2018-07-25T08:11:09.506Z,72.72
2018-07-25T08:12:09.468Z,72.81
2018-07-25T08:13:09.436Z,72.72
2018-07-25T08:14:09.412Z,72.24
2018-07-25T08:15:09.374Z,72.14
2018-07-25T08:16:09.347Z,72.05
2018-07-25T08:17:09.312Z,72.14
2018-07-25T08:18:09.270Z,72.05
2018-07-25T08:19:09.245Z,72.14
2018-07-25T08:20:09.208Z,72.24
2018-07-25T08:21:09.193Z,71.95
2018-07-25T08:22:09.141Z,71.37
2018-07-25T08:23:09.104Z,71.57
2018-07-25T08:24:09.073Z,71.86
2018-07-25T08:25:09.041Z,71.76
2018-07-25T08:26:09.006Z,72.14
2018-07-25T08:27:08.987Z,72.33
2018-07-25T08:28:08.932Z,72.33
2018-07-25T08:29:08.898Z,71.95
2018-07-25T08:30:08.864Z,72.05
2018-07-25T08:31:08.841Z,71.86
2018-07-25T08:32:08.800Z,72.05
2018-07-25T08:33:08.784Z,72.43
2018-07-25T08:34:08.737Z,72.43
2018-07-25T08:35:08.696Z,72.24
2018-07-25T08:36:08.669Z,72.24
2018-07-25T08:37:08.630Z,72.24
2018-07-25T08:38:08.597Z,71.76
2018-07-25T08:39:08.575Z,72.05
2018-07-25T08:40:08.534Z,71.47
2018-07-25T08:41:08.575Z,71.86
2018-07-25T08:42:08.470Z,71.37
2018-07-25T08:43:08.645Z,72.05
2018-07-25T08:44:08.406Z,71.57
2018-07-25T08:45:08.369Z,71.19
2018-07-25T08:46:08.335Z,71.76
2018-07-25T08:47:08.306Z,71.47
2018-07-25T08:48:08.260Z,71.57
2018-07-25T08:49:08.383Z,71.28
2018-07-25T08:50:08.196Z,71.37
2018-07-25T08:51:08.161Z,71.28
2018-07-25T08:52:08.139Z,71.66
2018-07-25T08:53:08.111Z,71.47
2018-07-25T08:54:08.068Z,71.09
2018-07-25T08:55:08.035Z,70.90
2018-07-25T08:56:07.992Z,71.09
2018-07-25T08:57:07.965Z,71.09
2018-07-25T08:58:07.937Z,70.99
2018-07-25T08:59:07.893Z,70.90
2018-07-25T09:00:07.859Z,71.19
2018-07-25T09:01:07.835Z,70.80
2018-07-25T09:02:07.794Z,70.99
2018-07-25T09:03:07.769Z,70.99
2018-07-25T09:04:07.722Z,70.99
2018-07-25T09:05:07.698Z,71.19
2018-07-25T09:06:07.657Z,70.80
2018-07-25T09:07:07.630Z,70.90
2018-07-25T09:08:07.595Z,70.80
2018-07-25T09:09:07.561Z,71.09
2018-07-25T09:10:07.529Z,70.80
2018-07-25T09:11:07.493Z,71.09
2018-07-25T09:12:07.452Z,71.09
2018-07-25T09:13:07.533Z,70.80
2018-07-25T09:14:07.402Z,70.99
2018-07-25T09:15:07.405Z,70.80
2018-07-25T09:17:07.296Z,70.13
2018-07-25T09:18:07.313Z,70.61
2018-07-25T09:19:07.247Z,70.13
2018-07-25T09:21:07.152Z,70.61
2018-07-25T09:22:07.123Z,70.61
2018-07-25T09:23:07.088Z,70.32
2018-07-25T09:24:07.058Z,70.42
2018-07-25T09:25:07.055Z,70.45
2018-07-25T09:26:06.995Z,70.03
2018-07-25T09:27:06.960Z,70.17
2018-07-25T09:28:06.919Z,70.32
2018-07-25T09:29:06.889Z,70.23
2018-07-25T09:30:06.860Z,70.13
2018-07-25T09:31:06.812Z,70.03
2018-07-25T09:32:06.793Z,70.03
2018-07-25T09:33:06.757Z,70.03
2018-07-25T09:34:06.760Z,70.23
2018-07-25T09:35:06.690Z,70.13
2018-07-25T09:36:06.647Z,70.61
2018-07-25T09:37:06.617Z,70.32
2018-07-25T09:38:06.601Z,70.32
2018-07-25T09:39:06.566Z,70.61
2018-07-25T09:40:06.519Z,69.93
2018-07-25T09:41:06.493Z,70.13
2018-07-25T09:42:06.448Z,70.13
2018-07-25T09:43:06.420Z,70.51
2018-07-25T09:44:06.386Z,70.32
2018-07-25T09:45:06.350Z,70.51
2018-07-25T09:46:06.318Z,70.42
2018-07-25T09:47:06.378Z,70.61
2018-07-25T09:48:06.242Z,70.51
2018-07-25T09:49:06.219Z,70.42
2018-07-25T09:50:06.183Z,70.61
2018-07-25T09:51:06.156Z,70.32
2018-07-25T09:52:06.107Z,70.61
2018-07-25T09:53:06.202Z,70.70
2018-07-25T09:54:06.076Z,70.70
2018-07-25T09:55:06.021Z,70.80
2018-07-25T09:56:05.979Z,70.90
2018-07-25T09:57:05.941Z,70.42
2018-07-25T09:58:05.917Z,70.32
2018-07-25T09:59:05.966Z,70.42
2018-07-25T10:00:05.870Z,69.97
2018-07-25T10:01:05.885Z,69.87
2018-07-25T10:02:05.846Z,70.26
2018-07-25T10:03:05.749Z,70.26
2018-07-25T10:04:05.705Z,70.17
2018-07-25T10:05:05.674Z,70.17
2018-07-25T10:06:05.643Z,70.36
2018-07-25T10:07:05.698Z,70.26
2018-07-25T10:08:05.586Z,70.36
2018-07-25T10:09:05.540Z,69.68
2018-07-25T10:10:05.512Z,69.53
2018-07-25T10:11:05.476Z,70.10
2018-07-25T10:12:05.450Z,69.40
2018-07-25T10:13:05.442Z,70.07
2018-07-25T10:14:05.376Z,70.29
2018-07-25T10:15:05.399Z,70.20
2018-07-25T10:16:05.409Z,70.20
2018-07-25T10:17:05.271Z,70.49
2018-07-25T10:18:05.247Z,69.72
2018-07-25T10:19:05.201Z,69.91
2018-07-25T10:20:05.207Z,70.39
2018-07-25T10:21:05.341Z,70.29
2018-07-25T10:22:05.136Z,70.23
2018-07-25T10:23:05.077Z,70.23
2018-07-25T10:24:05.094Z,69.95
2018-07-25T10:25:05.012Z,70.52
2018-07-25T10:26:05.000Z,70.43
2018-07-25T10:27:05.171Z,70.04
2018-07-25T10:28:04.953Z,70.23
2018-07-25T10:29:04.969Z,69.95
2018-07-25T10:30:04.843Z,69.56
2018-07-25T10:31:04.848Z,68.60
2018-07-25T10:32:04.807Z,68.92
2018-07-25T10:33:04.923Z,68.35
2018-07-25T10:34:05.920Z,68.25
2018-07-25T10:35:04.676Z,67.77
2018-07-25T10:36:04.641Z,67.77
2018-07-25T10:37:04.625Z,67.48
2018-07-25T10:38:04.860Z,67.10
2018-07-25T10:39:04.583Z,67.10
2018-07-25T10:40:04.514Z,67.13
2018-07-25T10:41:04.479Z,67.51
2018-07-25T10:42:04.449Z,67.32
2018-07-25T10:43:04.413Z,66.94
2018-07-25T10:45:04.347Z,67.51
2018-07-25T10:46:04.349Z,66.94
2018-07-25T10:47:04.277Z,66.94
2018-07-25T10:48:04.344Z,67.22
2018-07-25T10:49:04.208Z,66.65
2018-07-25T10:50:04.186Z,66.74
2018-07-25T10:51:04.146Z,66.10
2018-07-25T10:52:04.119Z,66.20
2018-07-25T10:53:04.085Z,66.20
2018-07-25T10:54:04.053Z,66.10
2018-07-25T10:55:04.265Z,65.14
2018-07-25T10:56:03.988Z,65.53
2018-07-25T10:57:03.962Z,65.53
2018-07-25T10:58:03.938Z,64.95
2018-07-25T10:59:03.929Z,64.56
2018-07-25T11:00:03.853Z,64.89
2018-07-25T11:01:03.817Z,64.89
2018-07-25T11:02:03.829Z,64.98
2018-07-25T11:03:03.761Z,64.98
2018-07-25T11:04:03.810Z,64.69
2018-07-25T11:05:03.698Z,64.40
2018-07-25T11:06:04.837Z,64.50
2018-07-25T11:07:03.865Z,64.40
2018-07-25T11:08:03.602Z,64.02
2018-07-25T11:09:03.570Z,63.82
2018-07-25T11:10:03.555Z,63.76
2018-07-25T11:11:03.512Z,63.47
2018-07-25T11:12:03.665Z,63.85
2018-07-25T11:13:03.437Z,63.18
2018-07-25T11:14:03.426Z,62.73
2018-07-25T11:15:03.386Z,60.93
2018-07-25T11:16:03.551Z,58.97
2018-07-25T11:17:03.336Z,57.45
2018-07-25T11:19:03.241Z,54.61
2018-07-25T11:20:03.439Z,53.19
2018-07-25T11:21:03.181Z,52.63
2018-07-25T11:22:03.213Z,51.40
2018-07-25T11:23:03.213Z,51.04
2018-07-25T11:26:03.022Z,48.83
2018-07-25T11:27:02.998Z,47.79
2018-07-25T11:28:02.964Z,47.23
2018-07-25T11:29:02.945Z,47.23
2018-07-25T11:30:02.916Z,45.99
2018-07-25T11:31:02.887Z,45.53
2018-07-25T11:32:02.851Z,45.04
2018-07-25T11:33:02.820Z,44.38
2018-07-25T11:34:02.803Z,44.87
2018-07-25T11:35:02.766Z,43.90
2018-07-25T11:36:02.734Z,42.76
2018-07-25T11:37:02.712Z,43.34
2018-07-25T11:38:03.068Z,42.95
2018-07-25T11:39:02.644Z,42.97
2018-07-25T11:40:02.620Z,43.07
2018-07-25T11:41:02.594Z,42.41
2018-07-25T11:42:02.574Z,41.63
2018-07-25T11:43:02.898Z,41.83
2018-07-25T11:44:02.506Z,41.63
2018-07-25T11:45:02.484Z,41.26
2018-07-25T11:46:02.461Z,40.41
2018-07-25T11:47:02.428Z,39.92
2018-07-25T11:48:02.392Z,39.34
2018-07-25T11:49:02.370Z,39.36
2018-07-25T11:50:02.356Z,38.96
2018-07-25T11:51:02.331Z,38.89
2018-07-25T11:52:02.299Z,38.89
2018-07-25T11:53:02.268Z,38.90
2018-07-25T11:54:02.251Z,39.00
2018-07-25T11:55:02.228Z,38.34
2018-07-25T11:56:02.180Z,38.14
2018-07-25T11:57:02.157Z,39.02
2018-07-25T11:58:02.132Z,38.63
2018-07-25T11:59:02.117Z,38.16
2018-07-25T12:00:02.095Z,38.26
2018-07-25T12:01:02.110Z,37.77
2018-07-25T12:02:02.029Z,37.60
2018-07-25T12:03:02.021Z,36.82
2018-07-25T12:04:01.991Z,37.40
2018-07-25T12:05:01.960Z,37.40
2018-07-25T12:06:01.932Z,36.91
2018-07-25T12:08:01.879Z,36.91
2018-07-25T12:09:01.854Z,36.43
2018-07-25T12:10:01.850Z,36.05
2018-07-25T12:11:01.807Z,35.95
2018-07-25T12:12:01.796Z,35.56
2018-07-25T12:13:01.777Z,35.56
2018-07-25T12:14:01.742Z,35.09
2018-07-25T12:15:01.721Z,34.89
2018-07-25T12:16:01.686Z,35.19
2018-07-25T12:17:01.664Z,34.80
2018-07-25T12:18:01.656Z,34.70
2018-07-25T12:19:01.822Z,34.70
2018-07-25T12:20:01.614Z,34.70
2018-07-25T12:21:01.593Z,34.78
2018-07-25T12:22:01.550Z,35.45
2018-07-25T12:23:01.736Z,35.92
2018-07-25T12:24:01.517Z,36.86
2018-07-25T12:25:01.634Z,37.25
2018-07-25T12:26:01.463Z,38.26
2018-07-25T12:27:01.948Z,39.59
2018-07-25T12:28:01.423Z,41.22
2018-07-25T12:29:01.408Z,41.90
2018-07-25T12:30:01.376Z,41.88
2018-07-25T12:31:01.357Z,42.83
2018-07-25T12:32:01.337Z,43.32
2018-07-25T12:33:01.700Z,43.30
2018-07-25T12:34:01.280Z,43.18
2018-07-25T12:35:01.336Z,43.86
2018-07-25T12:36:01.241Z,44.64
2018-07-25T12:37:01.210Z,44.83
2018-07-25T12:38:01.196Z,44.90
2018-07-25T12:39:01.314Z,45.00
2018-07-25T12:40:01.155Z,45.20
2018-07-25T12:41:01.123Z,45.02
2018-07-25T12:42:01.109Z,44.54
2018-07-25T12:43:01.072Z,44.73
2018-07-25T12:44:01.050Z,43.78
2018-07-25T12:45:01.023Z,43.59
2018-07-25T12:46:01.005Z,43.68
2018-07-25T12:47:00.983Z,43.30
2018-07-25T12:48:00.987Z,43.78
2018-07-25T12:49:00.936Z,43.51
2018-07-25T12:50:00.908Z,43.32
2018-07-25T12:51:00.890Z,42.76
2018-07-25T12:52:00.875Z,42.85
2018-07-25T12:53:00.838Z,41.61
2018-07-25T12:54:00.927Z,39.90
2018-07-25T12:55:00.834Z,38.87
2018-07-25T12:56:00.772Z,38.09
2018-07-25T12:57:00.749Z,38.56
2018-07-25T12:58:00.740Z,39.03
2018-07-25T12:59:00.694Z,39.20
2018-07-25T13:00:00.668Z,39.70
2018-07-25T13:01:00.649Z,39.41
2018-07-25T13:02:00.672Z,39.53
2018-07-25T13:03:00.598Z,39.04
2018-07-25T13:04:00.565Z,38.18
2018-07-25T13:05:00.757Z,37.35
2018-07-25T13:06:00.525Z,36.78